N603Q KSYR-KSYR
Flight info
| Callsign | N603Q |
|---|---|
| Flight time | 0h 8m |
| Altitude | VFR |
| Route | PATTERN |
| Aircraft | BE50/L-DOV/C |
Departure
| Time | 2026-04-26 18:16 |
|---|---|
| Airport | Syracuse Hancock International Airport (KSYR) |
Arrival
| Time | 2026-04-26 18:24 |
|---|---|
| Airport | Syracuse Hancock International Airport (KSYR) |
| Time | Latitude | Longitude | Altitude | Speed | Heading |
|---|---|---|---|---|---|
| 2026-04-26 18:13 | 43.11229 | -76.13038 | 414 ft | 15 kts | 227° |
| 2026-04-26 18:13 | 43.11075 | -76.13065 | 416 ft | 28 kts | 164° |
| 2026-04-26 18:13 | 43.10942 | -76.12884 | 417 ft | 26 kts | 96° |
| 2026-04-26 18:13 | 43.10939 | -76.12810 | 417 ft | 12 kts | 91° |
| 2026-04-26 18:14 | 43.10939 | -76.12805 | 417 ft | 0 kts | 91° |
| 2026-04-26 18:14 | 43.10927 | -76.12653 | 418 ft | 10 kts | 141° |
| 2026-04-26 18:14 | 43.10910 | -76.12638 | 417 ft | 0 kts | 153° |
| 2026-04-26 18:15 | 43.10896 | -76.12632 | 417 ft | 10 kts | 162° |
| 2026-04-26 18:15 | 43.10825 | -76.12324 | 418 ft | 74 kts | 86° |
| 2026-04-26 18:15 | 43.10875 | -76.11362 | 545 ft | 111 kts | 85° |
| 2026-04-26 18:15 | 43.11002 | -76.10342 | 898 ft | 112 kts | 74° |
| 2026-04-26 18:16 | 43.11392 | -76.09596 | 1378 ft | 98 kts | 21° |
| 2026-04-26 18:16 | 43.12455 | -76.10349 | 1909 ft | 121 kts | 278° |
| 2026-04-26 18:16 | 43.12486 | -76.11641 | 2039 ft | 147 kts | 272° |
| 2026-04-26 18:17 | 43.12458 | -76.12930 | 1702 ft | 128 kts | 274° |
| 2026-04-26 18:17 | 43.12375 | -76.14095 | 1288 ft | 125 kts | 236° |
| 2026-04-26 18:17 | 43.11617 | -76.14673 | 1121 ft | 119 kts | 181° |
| 2026-04-26 18:17 | 43.10867 | -76.14369 | 1077 ft | 111 kts | 120° |
| 2026-04-26 18:18 | 43.10765 | -76.13322 | 691 ft | 123 kts | 86° |
| 2026-04-26 18:18 | 43.10834 | -76.12274 | 419 ft | 95 kts | 84° |
| 2026-04-26 18:18 | 43.10872 | -76.11385 | 546 ft | 98 kts | 85° |
| 2026-04-26 18:18 | 43.10915 | -76.10487 | 969 ft | 93 kts | 86° |
| 2026-04-26 18:19 | 43.11047 | -76.09606 | 1171 ft | 110 kts | 39° |
| 2026-04-26 18:19 | 43.11836 | -76.09581 | 1217 ft | 126 kts | 346° |
| 2026-04-26 18:19 | 43.12386 | -76.10290 | 1476 ft | 109 kts | 277° |
| 2026-04-26 18:19 | 43.12391 | -76.11281 | 1728 ft | 122 kts | 270° |
| 2026-04-26 18:20 | 43.12357 | -76.12528 | 1666 ft | 128 kts | 271° |
| 2026-04-26 18:20 | 43.12320 | -76.13688 | 1362 ft | 123 kts | 270° |
| 2026-04-26 18:20 | 43.12053 | -76.14668 | 1331 ft | 109 kts | 207° |
| 2026-04-26 18:20 | 43.11804 | -76.14757 | 1249 ft | 116 kts | 183° |
| 2026-04-26 18:21 | 43.10775 | -76.13983 | 922 ft | 117 kts | 88° |
| 2026-04-26 18:21 | 43.10806 | -76.12883 | 495 ft | 109 kts | 86° |
| 2026-04-26 18:21 | 43.10853 | -76.11937 | 490 ft | 101 kts | 84° |
| 2026-04-26 18:21 | 43.10953 | -76.11047 | 957 ft | 94 kts | 84° |
| 2026-04-26 18:22 | 43.10990 | -76.10162 | 1334 ft | 96 kts | 82° |
| 2026-04-26 18:22 | 43.11281 | -76.09405 | 1635 ft | 96 kts | 16° |
| 2026-04-26 18:22 | 43.12018 | -76.09472 | 1793 ft | 113 kts | 330° |
| 2026-04-26 18:22 | 43.12291 | -76.10564 | 1785 ft | 138 kts | 275° |
| 2026-04-26 18:23 | 43.12319 | -76.11836 | 1594 ft | 118 kts | 278° |
| 2026-04-26 18:23 | 43.12351 | -76.12886 | 1510 ft | 115 kts | 273° |
| 2026-04-26 18:23 | 43.12241 | -76.14009 | 1299 ft | 112 kts | 244° |
| 2026-04-26 18:23 | 43.11668 | -76.14665 | 1012 ft | 112 kts | 190° |
| 2026-04-26 18:24 | 43.10951 | -76.14377 | 865 ft | 112 kts | 133° |
| 2026-04-26 18:24 | 43.10782 | -76.13346 | 546 ft | 129 kts | 85° |
| 2026-04-26 18:24 | 43.10830 | -76.12311 | 448 ft | 92 kts | 86° |
| 2026-04-26 18:24 | 43.10855 | -76.11674 | 417 ft | 46 kts | 89° |
| 2026-04-26 18:25 | 43.10868 | -76.11443 | 416 ft | 26 kts | 77° |
| 2026-04-26 18:25 | 43.10944 | -76.11355 | 414 ft | 0 kts | 326° |
| 2026-04-26 18:26 | 43.10976 | -76.11451 | 417 ft | 37 kts | 271° |
| 2026-04-26 18:26 | 43.10966 | -76.11914 | 418 ft | 46 kts | 269° |
| 2026-04-26 18:26 | 43.10957 | -76.12302 | 418 ft | 35 kts | 267° |
| 2026-04-26 18:26 | 43.10944 | -76.12604 | 418 ft | 28 kts | 266° |
| 2026-04-26 18:27 | 43.10937 | -76.12857 | 417 ft | 25 kts | 268° |
| 2026-04-26 18:27 | 43.11047 | -76.13049 | 416 ft | 28 kts | 327° |
| 2026-04-26 18:27 | 43.11214 | -76.13007 | 414 ft | 21 kts | 327° |